createdAt,value
2023-02-08T00:01:26.911Z,6.64
2023-02-08T00:03:55.099Z,6.70
2023-02-08T00:06:23.466Z,6.58
2023-02-08T00:08:51.456Z,6.61
2023-02-08T00:11:19.329Z,6.72
2023-02-08T00:13:47.398Z,6.66
2023-02-08T00:16:18.306Z,6.76
2023-02-08T00:18:46.524Z,6.66
2023-02-08T00:21:16.749Z,6.69
2023-02-08T00:23:44.721Z,6.73
2023-02-08T00:26:13.106Z,6.81
2023-02-08T00:28:42.257Z,6.72
2023-02-08T00:31:10.300Z,6.66
2023-02-08T00:33:39.742Z,6.66
2023-02-08T00:36:09.458Z,6.54
2023-02-08T00:38:37.625Z,6.56
2023-02-08T00:41:06.502Z,6.58
2023-02-08T00:43:34.984Z,6.53
2023-02-08T00:46:04.312Z,6.57
2023-02-08T00:48:33.250Z,6.61
2023-02-08T00:51:04.911Z,6.60
2023-02-08T00:53:36.845Z,6.47
2023-02-08T00:56:07.062Z,6.55
2023-02-08T00:58:36.038Z,6.56
2023-02-08T01:01:05.770Z,6.65
2023-02-08T01:03:34.550Z,6.74
2023-02-08T01:06:05.432Z,6.74
2023-02-08T01:08:33.908Z,6.77
2023-02-08T01:11:07.544Z,6.65
2023-02-08T01:13:35.784Z,6.73
2023-02-08T01:16:08.840Z,6.67
2023-02-08T01:18:36.963Z,6.62
2023-02-08T01:21:08.452Z,6.52
2023-02-08T01:23:37.267Z,6.51
2023-02-08T01:26:06.464Z,6.48
2023-02-08T01:28:34.654Z,6.56
2023-02-08T01:31:07.132Z,6.56
2023-02-08T01:33:35.394Z,6.48
2023-02-08T01:36:04.018Z,6.52
2023-02-08T01:38:34.525Z,6.55
2023-02-08T01:41:03.760Z,6.58
2023-02-08T01:43:36.183Z,6.53
2023-02-08T01:46:04.380Z,6.37
2023-02-08T01:48:37.833Z,6.52
2023-02-08T01:51:09.285Z,6.80
2023-02-08T01:53:40.974Z,6.47
2023-02-08T01:56:14.166Z,6.44
2023-02-08T01:58:47.488Z,6.54
2023-02-08T02:01:16.795Z,6.48
2023-02-08T02:03:45.121Z,6.43
2023-02-08T02:06:19.356Z,6.45
2023-02-08T02:08:56.803Z,6.42
2023-02-08T02:11:25.639Z,6.51
2023-02-08T02:13:54.909Z,6.57
2023-02-08T02:16:23.256Z,6.43
2023-02-08T02:18:52.116Z,6.44
2023-02-08T02:21:38.687Z,6.49
2023-02-08T02:24:42.194Z,6.55
2023-02-08T02:27:30.909Z,6.50
2023-02-08T02:30:33.612Z,6.46
2023-02-08T02:33:14.099Z,6.34
2023-02-08T02:35:52.837Z,6.35
2023-02-08T02:38:31.255Z,6.37
2023-02-08T02:41:07.218Z,6.32
2023-02-08T02:43:46.396Z,6.27
2023-02-08T02:46:25.973Z,6.37
2023-02-08T02:49:03.331Z,6.42
2023-02-08T02:51:39.633Z,6.38
2023-02-08T02:54:12.518Z,6.44
2023-02-08T02:56:45.098Z,6.43
2023-02-08T02:59:15.892Z,6.35
2023-02-08T03:01:45.745Z,6.28
2023-02-08T03:04:17.743Z,6.23
2023-02-08T03:07:01.054Z,6.17
2023-02-08T03:09:47.000Z,6.08
2023-02-08T03:12:30.720Z,6.06
2023-02-08T03:15:05.403Z,6.29
2023-02-08T03:17:49.272Z,6.07
2023-02-08T03:20:23.766Z,6.00
2023-02-08T03:23:00.372Z,6.03
2023-02-08T03:25:36.593Z,6.05
2023-02-08T03:28:12.120Z,6.03
2023-02-08T03:30:48.431Z,5.85
2023-02-08T03:33:22.568Z,6.05
2023-02-08T03:35:58.268Z,6.08
2023-02-08T03:38:30.296Z,6.00
2023-02-08T03:41:01.585Z,6.08
2023-02-08T03:43:33.765Z,6.15
2023-02-08T03:46:08.638Z,6.18
2023-02-08T03:48:39.866Z,6.13
2023-02-08T03:51:10.837Z,6.09
2023-02-08T03:53:41.448Z,6.09
2023-02-08T03:56:15.241Z,6.11
2023-02-08T03:58:47.976Z,6.12
2023-02-08T04:01:20.524Z,6.08
2023-02-08T04:03:53.557Z,6.05
2023-02-08T04:06:23.701Z,5.97
2023-02-08T04:08:51.852Z,5.94
2023-02-08T04:11:19.993Z,5.76
2023-02-08T04:13:48.022Z,5.83
2023-02-08T04:16:16.159Z,5.71
2023-02-08T04:18:44.134Z,5.77
2023-02-08T04:21:12.319Z,5.83
2023-02-08T04:23:41.737Z,5.83
2023-02-08T04:26:09.828Z,5.87
2023-02-08T04:28:37.787Z,5.72
2023-02-08T04:31:06.137Z,5.80
2023-02-08T04:33:34.330Z,5.86
2023-02-08T04:36:03.033Z,5.84
2023-02-08T04:38:31.432Z,5.94
2023-02-08T04:41:00.741Z,5.96
2023-02-08T04:43:28.745Z,5.98
2023-02-08T04:45:56.850Z,6.02
2023-02-08T04:48:25.046Z,6.05
2023-02-08T04:50:56.309Z,6.06
2023-02-08T04:53:24.725Z,5.99
2023-02-08T04:55:53.409Z,5.96
2023-02-08T04:58:23.030Z,6.04
2023-02-08T05:00:51.266Z,6.03
2023-02-08T05:03:19.352Z,6.09
2023-02-08T05:05:47.377Z,6.06
2023-02-08T05:08:15.466Z,6.00
2023-02-08T05:10:46.036Z,5.96
2023-02-08T05:13:13.990Z,5.88
2023-02-08T05:15:43.483Z,5.86
2023-02-08T05:18:11.665Z,5.69
2023-02-08T05:20:40.116Z,5.68
2023-02-08T05:23:08.398Z,5.84
2023-02-08T05:25:36.469Z,5.79
2023-02-08T05:28:04.624Z,5.69
2023-02-08T05:30:32.617Z,5.78
2023-02-08T05:33:02.244Z,5.79
2023-02-08T05:35:30.332Z,5.76
2023-02-08T05:37:58.255Z,5.80
2023-02-08T05:40:26.224Z,5.85
2023-02-08T05:42:54.449Z,5.80
2023-02-08T05:45:22.632Z,5.85
2023-02-08T05:47:50.645Z,5.88
2023-02-08T05:50:20.183Z,5.89
2023-02-08T05:52:51.890Z,5.77
2023-02-08T05:55:19.929Z,5.80
2023-02-08T05:57:47.977Z,5.86
2023-02-08T06:00:17.262Z,5.85
2023-02-08T06:02:45.668Z,5.66
2023-02-08T06:05:14.361Z,5.69
2023-02-08T06:07:43.808Z,5.76
2023-02-08T06:10:14.445Z,5.74
2023-02-08T06:12:43.547Z,5.77
2023-02-08T06:15:12.933Z,5.72
2023-02-08T06:17:41.003Z,5.77
2023-02-08T06:20:11.146Z,5.80
2023-02-08T06:22:40.038Z,5.78
2023-02-08T06:25:11.126Z,5.74
2023-02-08T06:27:39.764Z,5.69
2023-02-08T06:30:08.842Z,5.67
2023-02-08T06:32:37.271Z,5.72
2023-02-08T06:35:07.272Z,5.75
2023-02-08T06:37:35.360Z,5.71
2023-02-08T06:40:04.255Z,5.75
2023-02-08T06:42:34.204Z,5.72
2023-02-08T06:45:02.447Z,5.75
2023-02-08T06:47:31.837Z,5.71
2023-02-08T06:50:00.044Z,5.62
2023-02-08T06:52:28.108Z,5.64
2023-02-08T06:54:56.518Z,5.67
2023-02-08T06:57:24.876Z,5.67
2023-02-08T06:59:54.479Z,5.69
2023-02-08T07:02:23.476Z,5.69
2023-02-08T07:04:51.898Z,5.68
2023-02-08T07:07:21.202Z,5.57
2023-02-08T07:09:49.460Z,5.63
2023-02-08T07:12:18.331Z,5.58
2023-02-08T07:14:46.877Z,5.55
2023-02-08T07:17:16.700Z,5.31
2023-02-08T07:19:45.336Z,5.50
2023-02-08T07:22:13.670Z,5.51
2023-02-08T07:24:43.008Z,5.49
2023-02-08T07:27:13.899Z,5.47
2023-02-08T07:29:42.306Z,5.53
2023-02-08T07:32:11.635Z,5.29
2023-02-08T07:34:41.678Z,5.39
2023-02-08T07:37:09.812Z,5.43
2023-02-08T07:39:37.880Z,5.40
2023-02-08T07:42:06.755Z,5.39
2023-02-08T07:44:42.609Z,5.34
2023-02-08T07:47:12.537Z,5.40
2023-02-08T07:49:41.990Z,5.44
2023-02-08T07:52:10.071Z,5.38
2023-02-08T07:54:39.017Z,5.52
2023-02-08T07:57:10.139Z,5.58
2023-02-08T07:59:40.229Z,5.53
2023-02-08T08:02:10.105Z,5.57
2023-02-08T08:04:38.440Z,5.62
2023-02-08T08:07:08.045Z,5.62
2023-02-08T08:09:36.354Z,5.69
2023-02-08T08:12:05.378Z,5.73
2023-02-08T08:14:33.611Z,5.63
2023-02-08T08:17:01.622Z,5.80
2023-02-08T08:19:29.860Z,5.79
2023-02-08T08:21:59.249Z,5.79
2023-02-08T08:24:30.312Z,5.83
2023-02-08T08:26:58.766Z,5.87
2023-02-08T08:29:27.068Z,5.91
2023-02-08T08:31:55.423Z,5.92
2023-02-08T08:34:29.707Z,5.98
2023-02-08T08:36:57.851Z,5.95
2023-02-08T08:39:27.421Z,5.94
2023-02-08T08:41:58.586Z,5.87
2023-02-08T08:44:26.900Z,5.81
2023-02-08T08:46:56.812Z,5.72
2023-02-08T08:49:25.618Z,5.82
2023-02-08T08:51:53.669Z,5.86
2023-02-08T08:54:23.538Z,5.93
2023-02-08T08:56:52.475Z,5.95
2023-02-08T08:59:22.117Z,6.00
2023-02-08T09:01:50.517Z,6.02
2023-02-08T09:04:18.676Z,5.97
2023-02-08T09:06:46.704Z,5.91
2023-02-08T09:09:15.284Z,5.71
2023-02-08T09:11:43.978Z,5.71
2023-02-08T09:14:14.996Z,5.68
2023-02-08T09:16:47.984Z,5.64
2023-02-08T09:19:17.204Z,5.67
2023-02-08T09:21:45.886Z,5.44
2023-02-08T09:24:14.759Z,5.47
2023-02-08T09:26:43.014Z,5.39
2023-02-08T09:29:11.237Z,5.42
2023-02-08T09:31:39.951Z,5.37
2023-02-08T09:34:10.266Z,5.37
2023-02-08T09:36:41.479Z,5.56
2023-02-08T09:39:13.500Z,5.64
2023-02-08T09:42:25.737Z,5.78
2023-02-08T09:45:14.144Z,5.79
2023-02-08T09:47:49.782Z,5.75
2023-02-08T09:50:22.629Z,5.83
2023-02-08T09:52:59.241Z,5.82
2023-02-08T09:55:33.357Z,5.68
2023-02-08T09:58:06.334Z,5.52
2023-02-08T10:00:38.878Z,5.68
2023-02-08T10:03:11.007Z,5.76
2023-02-08T10:05:40.625Z,5.81
2023-02-08T10:08:12.226Z,5.83
2023-02-08T10:10:50.909Z,5.93
2023-02-08T10:13:41.694Z,5.93
2023-02-08T10:16:19.580Z,5.76
2023-02-08T10:18:58.345Z,5.71
2023-02-08T10:21:46.625Z,5.77
2023-02-08T10:24:31.027Z,5.65
2023-02-08T10:27:06.725Z,5.65
2023-02-08T10:29:56.954Z,5.62
2023-02-08T10:32:39.390Z,5.71
2023-02-08T10:35:13.943Z,5.70
2023-02-08T10:37:46.494Z,5.60
2023-02-08T10:40:25.408Z,5.77
2023-02-08T10:43:01.982Z,6.01
2023-02-08T10:45:37.328Z,6.05
2023-02-08T10:48:12.737Z,6.15
2023-02-08T10:50:43.554Z,6.25
2023-02-08T10:53:17.058Z,6.38
2023-02-08T10:55:46.565Z,6.64
2023-02-08T10:58:18.260Z,6.45
2023-02-08T11:00:47.769Z,6.47
2023-02-08T11:03:19.791Z,6.21
2023-02-08T11:05:48.370Z,6.28
2023-02-08T11:08:20.480Z,6.23
2023-02-08T11:10:58.506Z,6.41
2023-02-08T11:13:35.425Z,6.48
2023-02-08T11:16:07.330Z,6.50
2023-02-08T11:18:39.059Z,6.65
2023-02-08T11:21:11.240Z,6.54
2023-02-08T11:23:43.914Z,6.67
2023-02-08T11:26:20.693Z,6.87
2023-02-08T11:29:01.284Z,6.73
2023-02-08T11:31:30.169Z,6.74
2023-02-08T11:34:03.540Z,6.83
2023-02-08T11:36:33.271Z,6.90
2023-02-08T11:39:16.275Z,6.92
2023-02-08T11:41:45.932Z,6.91
2023-02-08T11:44:22.609Z,7.02
2023-02-08T11:46:52.171Z,7.25
2023-02-08T11:49:26.942Z,7.24
2023-02-08T11:51:55.522Z,7.36
2023-02-08T11:54:41.361Z,7.54
2023-02-08T11:57:19.269Z,7.47
2023-02-08T11:59:48.025Z,7.42
2023-02-08T12:02:30.411Z,7.42
2023-02-08T12:04:59.787Z,7.48
2023-02-08T12:07:50.458Z,7.62
2023-02-08T12:10:48.310Z,7.55
2023-02-08T12:13:35.118Z,7.38
2023-02-08T12:16:37.526Z,7.57
2023-02-08T12:19:31.510Z,7.81
2023-02-08T12:22:07.663Z,7.76
2023-02-08T12:24:46.857Z,7.85
2023-02-08T12:27:31.281Z,7.87
2023-02-08T12:30:08.561Z,7.97
2023-02-08T12:32:54.442Z,7.90
2023-02-08T12:36:05.302Z,8.11
2023-02-08T12:39:26.699Z,8.20
2023-02-08T12:42:43.875Z,8.22
2023-02-08T12:45:54.253Z,7.98
2023-02-08T12:48:56.172Z,8.18
2023-02-08T12:51:42.462Z,8.27
2023-02-08T12:54:16.522Z,8.32
2023-02-08T12:57:00.346Z,8.76
2023-02-08T12:59:37.288Z,8.66
2023-02-08T13:02:16.323Z,8.75
2023-02-08T13:04:48.317Z,8.74
2023-02-08T13:07:22.443Z,8.85
2023-02-08T13:09:58.816Z,9.28
2023-02-08T13:12:30.857Z,9.29
2023-02-08T13:15:09.247Z,9.54
2023-02-08T13:17:46.596Z,9.48
2023-02-08T13:20:36.224Z,9.43
2023-02-08T13:23:12.283Z,9.71
2023-02-08T13:25:44.393Z,9.74
2023-02-08T13:28:20.472Z,9.97
2023-02-08T13:31:00.299Z,9.84
2023-02-08T13:33:37.770Z,9.95
2023-02-08T13:36:07.482Z,9.89
2023-02-08T13:38:38.358Z,10.03
2023-02-08T13:41:16.368Z,10.08
2023-02-08T13:43:51.391Z,10.28
2023-02-08T13:46:23.066Z,10.34
2023-02-08T13:48:55.139Z,10.42
2023-02-08T13:51:56.580Z,10.34
2023-02-08T13:54:25.036Z,10.09
2023-02-08T13:56:54.488Z,10.10
2023-02-08T13:59:33.736Z,10.14
2023-02-08T14:02:28.341Z,10.19
2023-02-08T14:05:16.701Z,10.32
2023-02-08T14:07:48.389Z,10.26
2023-02-08T14:10:30.683Z,10.20
2023-02-08T14:13:04.848Z,10.25
2023-02-08T14:15:41.024Z,10.32
2023-02-08T14:18:34.252Z,10.39
2023-02-08T14:21:06.012Z,10.26
2023-02-08T14:23:40.193Z,10.29
2023-02-08T14:26:11.062Z,10.26
2023-02-08T14:28:45.211Z,10.30
2023-02-08T14:31:15.471Z,10.19
2023-02-08T14:33:54.122Z,10.13
2023-02-08T14:36:29.657Z,10.41
2023-02-08T14:39:22.845Z,10.55
2023-02-08T14:42:03.298Z,10.64
2023-02-08T14:45:05.777Z,10.25
2023-02-08T14:47:55.449Z,10.39
2023-02-08T14:50:29.194Z,10.30
2023-02-08T14:53:06.544Z,10.49
2023-02-08T14:55:42.523Z,10.48
2023-02-08T14:58:16.576Z,10.40
2023-02-08T15:00:45.870Z,10.51
2023-02-08T15:03:18.898Z,10.43
2023-02-08T15:06:12.771Z,10.75
2023-02-08T15:08:41.173Z,10.97
2023-02-08T15:11:22.708Z,11.13
2023-02-08T15:13:51.936Z,11.03
2023-02-08T15:16:21.302Z,10.84
2023-02-08T15:18:54.917Z,10.88
2023-02-08T15:21:31.622Z,11.03
2023-02-08T15:24:02.587Z,11.03
2023-02-08T15:26:32.365Z,11.01
2023-02-08T15:29:01.065Z,11.13
2023-02-08T15:31:33.814Z,11.02
2023-02-08T15:34:03.977Z,10.77
2023-02-08T15:36:35.918Z,10.70
2023-02-08T15:39:12.105Z,10.84
2023-02-08T15:41:40.280Z,10.79
2023-02-08T15:44:20.631Z,10.71
2023-02-08T15:46:56.709Z,10.62
2023-02-08T15:49:33.813Z,10.41
2023-02-08T15:52:04.392Z,10.43
2023-02-08T15:54:32.858Z,10.45
2023-02-08T15:57:04.364Z,10.28
2023-02-08T15:59:35.587Z,10.16
2023-02-08T16:02:19.532Z,10.00
2023-02-08T16:04:47.951Z,9.82
2023-02-08T16:07:26.669Z,9.87
2023-02-08T16:09:55.151Z,9.85
2023-02-08T16:12:25.271Z,9.78
2023-02-08T16:14:56.459Z,9.88
2023-02-08T16:17:43.056Z,9.63
2023-02-08T16:20:29.150Z,9.67
2023-02-08T16:23:30.423Z,9.63
2023-02-08T16:26:10.756Z,9.64
2023-02-08T16:28:38.855Z,9.46
2023-02-08T16:31:08.059Z,9.50
2023-02-08T16:33:37.997Z,9.42
2023-02-08T16:36:24.181Z,9.59
2023-02-08T16:39:24.103Z,9.63
2023-02-08T16:42:15.541Z,9.64
2023-02-08T16:45:05.870Z,9.61
2023-02-08T16:47:38.033Z,9.40
2023-02-08T16:50:07.304Z,9.46
2023-02-08T16:52:35.849Z,9.35
2023-02-08T16:55:06.661Z,9.30
2023-02-08T16:57:42.952Z,9.24
2023-02-08T17:00:18.343Z,9.27
2023-02-08T17:02:46.518Z,9.31
2023-02-08T17:05:15.965Z,9.21
2023-02-08T17:07:44.589Z,9.18
2023-02-08T17:10:22.599Z,9.26
2023-02-08T17:12:50.731Z,8.93
2023-02-08T17:15:21.143Z,9.05
2023-02-08T17:17:49.733Z,9.11
2023-02-08T17:20:34.423Z,9.16
2023-02-08T17:23:09.276Z,9.18
2023-02-08T17:25:39.865Z,9.11
2023-02-08T17:28:25.203Z,9.09
2023-02-08T17:31:13.630Z,9.04
2023-02-08T17:34:08.429Z,8.99
2023-02-08T17:36:46.863Z,8.99
2023-02-08T17:39:24.585Z,9.01
2023-02-08T17:42:27.685Z,8.97
2023-02-08T17:45:07.519Z,9.01
2023-02-08T17:47:45.136Z,9.08
2023-02-08T17:50:32.645Z,8.87
2023-02-08T17:53:11.834Z,8.87
2023-02-08T17:55:52.559Z,8.90
2023-02-08T17:58:32.522Z,8.86
2023-02-08T18:01:13.170Z,8.82
2023-02-08T18:03:45.843Z,8.75
2023-02-08T18:06:19.756Z,8.72
2023-02-08T18:08:48.594Z,8.80
2023-02-08T18:11:20.060Z,8.80
2023-02-08T18:13:50.452Z,8.75
2023-02-08T18:16:20.626Z,8.73
2023-02-08T18:18:48.828Z,8.59
2023-02-08T18:21:18.420Z,8.43
2023-02-08T18:23:47.670Z,8.34
2023-02-08T18:26:18.100Z,8.33
2023-02-08T18:28:46.849Z,8.31
2023-02-08T18:31:20.164Z,8.24
2023-02-08T18:33:49.164Z,8.50
2023-02-08T18:36:21.832Z,8.25
2023-02-08T18:38:52.658Z,8.26
2023-02-08T18:41:23.675Z,8.24
2023-02-08T18:43:53.271Z,8.31
2023-02-08T18:46:24.986Z,8.20
2023-02-08T18:48:54.191Z,8.20
2023-02-08T18:51:24.025Z,8.16
2023-02-08T18:53:54.084Z,8.04
2023-02-08T18:56:24.273Z,7.95
2023-02-08T18:58:53.227Z,8.12
2023-02-08T19:01:24.963Z,8.06
2023-02-08T19:03:54.121Z,7.98
2023-02-08T19:06:24.707Z,7.97
2023-02-08T19:08:56.040Z,7.92
2023-02-08T19:11:26.240Z,7.80
2023-02-08T19:13:57.280Z,7.74
2023-02-08T19:16:27.696Z,7.56
2023-02-08T19:18:56.456Z,7.59
2023-02-08T19:21:25.125Z,7.54
2023-02-08T19:23:54.350Z,7.51
2023-02-08T19:26:24.697Z,7.56
2023-02-08T19:28:57.058Z,7.53
2023-02-08T19:31:28.626Z,7.49
2023-02-08T19:33:59.307Z,7.56
2023-02-08T19:36:29.777Z,7.57
2023-02-08T19:38:58.665Z,7.57
2023-02-08T19:41:28.867Z,7.38
2023-02-08T19:43:56.907Z,7.57
2023-02-08T19:46:28.103Z,7.54
2023-02-08T19:49:00.192Z,7.37
2023-02-08T19:51:30.294Z,7.40
2023-02-08T19:53:58.556Z,7.29
2023-02-08T19:56:26.534Z,7.37
2023-02-08T19:58:55.267Z,7.43
2023-02-08T20:01:24.340Z,7.46
2023-02-08T20:03:55.067Z,7.45
2023-02-08T20:06:25.926Z,7.25
2023-02-08T20:08:54.740Z,7.29
2023-02-08T20:11:24.795Z,7.29
2023-02-08T20:13:53.182Z,7.33
2023-02-08T20:16:22.656Z,7.32
2023-02-08T20:18:51.536Z,7.36
2023-02-08T20:21:21.672Z,7.38
2023-02-08T20:23:50.698Z,7.43
2023-02-08T20:26:20.987Z,7.44
2023-02-08T20:28:51.327Z,7.50
2023-02-08T20:31:21.826Z,7.56
2023-02-08T20:33:50.830Z,7.37
2023-02-08T20:36:22.005Z,7.36
2023-02-08T20:38:52.625Z,7.40
2023-02-08T20:41:22.876Z,7.33
2023-02-08T20:43:51.205Z,7.26
2023-02-08T20:46:22.225Z,7.36
2023-02-08T20:48:50.460Z,7.29
2023-02-08T20:51:22.957Z,7.11
2023-02-08T20:53:52.519Z,7.28
2023-02-08T20:56:22.974Z,7.36
2023-02-08T20:58:51.314Z,7.34
2023-02-08T21:01:21.333Z,7.27
2023-02-08T21:03:49.776Z,7.42
2023-02-08T21:06:19.797Z,7.54
2023-02-08T21:08:51.665Z,7.49
2023-02-08T21:11:21.471Z,7.44
2023-02-08T21:13:50.214Z,7.16
2023-02-08T21:16:19.109Z,7.18
2023-02-08T21:18:48.046Z,7.21
2023-02-08T21:21:16.788Z,7.28
2023-02-08T21:23:45.345Z,7.25
2023-02-08T21:26:17.765Z,7.22
2023-02-08T21:28:45.975Z,7.26
2023-02-08T21:31:22.049Z,7.21
2023-02-08T21:33:50.964Z,7.07
2023-02-08T21:36:21.043Z,7.04
2023-02-08T21:38:49.220Z,6.98
2023-02-08T21:41:21.224Z,6.97
2023-02-08T21:43:50.165Z,7.02
2023-02-08T21:46:19.215Z,7.01
2023-02-08T21:49:05.131Z,7.18
2023-02-08T21:51:51.305Z,7.09
2023-02-08T21:54:38.615Z,6.83
2023-02-08T21:57:10.916Z,6.95
2023-02-08T21:59:39.334Z,6.78
2023-02-08T22:02:09.241Z,6.73
2023-02-08T22:04:37.906Z,6.75
2023-02-08T22:07:05.914Z,6.43
2023-02-08T22:09:35.917Z,6.61
2023-02-08T22:12:03.970Z,6.54
2023-02-08T22:14:34.961Z,6.58
2023-02-08T22:17:03.121Z,6.51
2023-02-08T22:19:31.177Z,6.48
2023-02-08T22:21:59.090Z,6.42
2023-02-08T22:24:27.087Z,6.36
2023-02-08T22:26:55.277Z,6.33
2023-02-08T22:29:23.516Z,6.41
2023-02-08T22:31:53.196Z,6.21
2023-02-08T22:34:21.307Z,6.23
2023-02-08T22:36:49.458Z,6.19
2023-02-08T22:39:17.974Z,5.96
2023-02-08T22:41:45.947Z,5.93
2023-02-08T22:44:14.028Z,6.08
2023-02-08T22:46:42.251Z,6.06
2023-02-08T22:49:11.939Z,6.08
2023-02-08T22:51:39.860Z,6.01
2023-02-08T22:54:07.811Z,6.00
2023-02-08T22:56:35.720Z,6.12
2023-02-08T22:59:03.724Z,6.16
2023-02-08T23:01:31.887Z,6.16
2023-02-08T23:04:01.831Z,6.12
2023-02-08T23:06:31.629Z,6.19
2023-02-08T23:08:59.725Z,6.11
2023-02-08T23:11:27.886Z,5.94
2023-02-08T23:13:55.942Z,6.03
2023-02-08T23:16:25.755Z,5.90
2023-02-08T23:18:54.030Z,6.04
2023-02-08T23:21:22.759Z,5.94
2023-02-08T23:23:52.191Z,5.92
2023-02-08T23:26:21.943Z,5.74
2023-02-08T23:28:51.593Z,5.96
2023-02-08T23:31:20.211Z,5.92
2023-02-08T23:33:49.143Z,5.80
2023-02-08T23:36:20.725Z,5.92
2023-02-08T23:38:49.062Z,5.92
2023-02-08T23:41:20.141Z,5.99
2023-02-08T23:43:48.352Z,5.76
2023-02-08T23:46:19.399Z,5.96
2023-02-08T23:48:47.912Z,5.73
2023-02-08T23:51:17.493Z,5.73
2023-02-08T23:53:46.216Z,5.61
2023-02-08T23:56:17.435Z,5.62
2023-02-08T23:58:48.439Z,5.59
